Time;durP1;ratioP1;P1;durP2;ratioP2;P2;SDS_P1;SDS_P2;PMS_P1;PMS_P2;Temp;Humidity;BMP_temperature;BMP_pressure;BME280_temperature;BME280_humidity;BME280_pressure;Samples;Min_cycle;Max_cycle;Signal;HPM_P1;HPM_P2
2021/03/05 00:00:31;;;;;;;14.00;5.97;;;5.60;99.90;;;;;;5047673;28;20499;-80
2021/03/05 00:02:56;;;;;;;9.30;5.60;;;5.60;99.90;;;;;;5048244;28;20319;-79
2021/03/05 00:05:22;;;;;;;10.65;5.35;;;5.60;99.90;;;;;;5043730;28;20036;-79
2021/03/05 00:07:48;;;;;;;10.40;6.03;;;5.60;99.90;;;;;;5039266;28;20122;-79
2021/03/05 00:10:30;;;;;;;11.85;6.00;;;5.60;99.90;;;;;;5044171;28;20041;-79
2021/03/05 00:12:56;;;;;;;9.40;5.55;;;5.60;99.90;;;;;;5041237;28;20118;-78
2021/03/05 00:15:23;;;;;;;10.80;6.38;;;5.60;99.90;;;;;;5036881;28;20159;-79
2021/03/05 00:17:49;;;;;;;10.60;5.50;;;5.60;99.90;;;;;;5046894;28;20021;-79
2021/03/05 00:20:19;;;;;;;12.20;6.75;;;5.60;99.90;;;;;;5045494;28;20438;-80
2021/03/05 00:22:44;;;;;;;12.23;6.22;;;5.60;99.90;;;;;;5042029;28;20154;-79
2021/03/05 00:25:10;;;;;;;9.90;5.05;;;5.60;99.90;;;;;;5041763;28;20025;-78
2021/03/05 00:27:37;;;;;;;11.90;6.50;;;5.60;99.90;;;;;;5044292;28;20492;-79
2021/03/05 00:30:05;;;;;;;10.27;5.47;;;5.60;99.90;;;;;;5044527;28;20044;-79
2021/03/05 00:32:30;;;;;;;11.30;6.00;;;5.60;99.90;;;;;;5042426;28;20033;-78
2021/03/05 00:34:56;;;;;;;8.55;5.15;;;5.60;99.90;;;;;;5043684;28;20087;-79
2021/03/05 00:37:22;;;;;;;8.43;4.50;;;5.60;99.90;;;;;;5037427;28;20345;-79
2021/03/05 00:39:47;;;;;;;7.60;5.03;;;5.60;99.90;;;;;;5045562;28;20424;-79
2021/03/05 00:42:13;;;;;;;8.65;5.13;;;5.70;99.90;;;;;;5044131;28;20033;-79
2021/03/05 00:44:38;;;;;;;10.20;5.18;;;5.70;99.90;;;;;;5042657;28;20383;-79
2021/03/05 00:47:04;;;;;;;12.93;6.25;;;5.70;99.90;;;;;;5040769;28;20033;-78
2021/03/05 00:49:30;;;;;;;10.40;5.20;;;5.70;99.90;;;;;;5043081;28;20086;-78
2021/03/05 00:51:55;;;;;;;7.30;4.50;;;5.70;99.90;;;;;;5036373;28;20044;-79
2021/03/05 00:54:21;;;;;;;7.63;3.90;;;5.70;99.90;;;;;;5045818;28;20090;-79
2021/03/05 00:56:47;;;;;;;8.85;4.68;;;5.80;99.90;;;;;;5042374;28;20116;-78
2021/03/05 00:59:12;;;;;;;7.47;3.92;;;5.70;99.90;;;;;;5048545;28;20029;-79
2021/03/05 01:01:38;;;;;;;11.95;5.68;;;5.70;99.90;;;;;;5039311;28;20436;-79
2021/03/05 01:04:04;;;;;;;9.57;4.47;;;5.70;99.90;;;;;;5041094;28;20056;-79
2021/03/05 01:06:29;;;;;;;11.43;6.18;;;5.70;99.90;;;;;;5043985;28;20044;-79
2021/03/05 01:08:55;;;;;;;9.52;4.93;;;5.60;99.90;;;;;;5040811;28;20075;-78
2021/03/05 01:11:21;;;;;;;8.93;5.13;;;5.60;99.90;;;;;;5047885;28;20044;-78
2021/03/05 01:13:47;;;;;;;8.13;4.53;;;5.60;99.90;;;;;;5043325;28;20033;-79
2021/03/05 01:16:14;;;;;;;8.02;4.05;;;5.60;99.90;;;;;;5039176;28;20025;-79
2021/03/05 01:18:39;;;;;;;7.88;4.43;;;5.60;99.90;;;;;;5043625;28;20032;-79
2021/03/05 01:21:05;;;;;;;11.35;5.55;;;5.60;99.90;;;;;;5045163;28;20032;-78
2021/03/05 01:23:31;;;;;;;9.48;5.95;;;5.70;99.90;;;;;;5042371;28;20040;-80
2021/03/05 01:25:57;;;;;;;9.27;4.18;;;5.70;99.90;;;;;;5041353;28;20574;-78
2021/03/05 01:28:23;;;;;;;10.82;5.55;;;5.70;99.90;;;;;;5048492;28;20025;-78
2021/03/05 01:30:48;;;;;;;9.45;5.20;;;5.80;99.90;;;;;;5035542;28;20996;-78
2021/03/05 01:33:14;;;;;;;9.95;5.20;;;5.80;99.90;;;;;;5037658;28;20037;-79
2021/03/05 01:35:40;;;;;;;9.52;5.55;;;5.80;99.90;;;;;;5042497;28;20472;-79
2021/03/05 01:38:05;;;;;;;9.65;5.25;;;5.80;99.90;;;;;;5029600;28;20036;-79
2021/03/05 01:40:33;;;;;;;7.68;4.72;;;5.80;99.90;;;;;;5037373;28;20021;-78
2021/03/05 01:42:58;;;;;;;9.13;5.05;;;5.80;99.90;;;;;;5045617;28;20036;-78
2021/03/05 01:45:27;;;;;;;8.90;4.68;;;5.80;99.90;;;;;;5038690;28;20258;-78
2021/03/05 01:47:56;;;;;;;8.43;5.35;;;5.80;99.90;;;;;;5034585;28;20047;-79
2021/03/05 01:50:25;;;;;;;10.82;5.50;;;5.80;99.90;;;;;;5042434;28;20033;-79
2021/03/05 01:52:59;;;;;;;10.95;5.90;;;5.70;99.90;;;;;;5042239;28;20132;-80
2021/03/05 01:55:25;;;;;;;11.15;5.50;;;5.70;99.90;;;;;;5042725;28;20028;-79
2021/03/05 01:57:51;;;;;;;7.70;4.28;;;5.70;99.90;;;;;;5042781;28;20028;-78
2021/03/05 02:00:21;;;;;;;11.57;5.30;;;5.70;99.90;;;;;;5032756;28;20432;-79
2021/03/05 02:02:47;;;;;;;8.00;4.57;;;5.70;99.90;;;;;;5033610;28;20022;-79
2021/03/05 02:05:13;;;;;;;6.57;4.70;;;5.70;99.90;;;;;;5052831;28;20544;-79
2021/03/05 02:07:39;;;;;;;9.20;4.43;;;5.60;99.90;;;;;;5046758;28;20100;-80
2021/03/05 02:10:07;;;;;;;8.73;4.50;;;5.60;99.90;;;;;;5043406;28;20032;-79
2021/03/05 02:12:33;;;;;;;9.25;4.55;;;5.60;99.90;;;;;;5046007;28;20423;-78
2021/03/05 02:14:59;;;;;;;12.40;5.55;;;5.60;99.90;;;;;;5048776;28;20022;-79
2021/03/05 02:17:31;;;;;;;6.63;3.50;;;5.60;99.90;;;;;;5045310;28;20029;-78
2021/03/05 02:20:03;;;;;;;8.77;4.93;;;5.60;99.90;;;;;;5038952;28;20053;-79
2021/03/05 02:23:07;;;;;;;11.50;5.43;;;5.50;99.90;;;;;;5044415;28;20035;-80
2021/03/05 02:25:35;;;;;;;9.90;5.45;;;5.60;99.90;;;;;;5040909;28;20037;-79
2021/03/05 02:28:03;;;;;;;6.47;3.80;;;5.60;99.90;;;;;;5048026;28;20033;-79
2021/03/05 02:31:08;;;;;;;10.98;5.60;;;5.60;99.90;;;;;;5045570;28;20037;-79
2021/03/05 02:33:48;;;;;;;9.35;4.60;;;5.60;99.90;;;;;;5039004;28;20044;-79
2021/03/05 02:36:17;;;;;;;;;;;5.60;99.90;;;;;;5049539;28;20128;-78
2021/03/05 02:38:54;;;;;;;9.93;5.00;;;5.60;99.90;;;;;;5042013;28;19960;-78
2021/03/05 02:41:21;;;;;;;8.90;3.85;;;5.50;99.90;;;;;;5044518;28;20094;-79
2021/03/05 02:43:47;;;;;;;8.95;4.95;;;5.50;99.90;;;;;;5048031;28;20029;-78
2021/03/05 02:46:13;;;;;;;10.50;5.75;;;5.60;99.90;;;;;;5048975;28;20037;-80
2021/03/05 02:48:43;;;;;;;9.52;5.80;;;5.60;99.90;;;;;;5043336;28;20061;-78
2021/03/05 02:51:11;;;;;;;11.13;6.40;;;5.60;99.90;;;;;;5049426;28;20033;-78
2021/03/05 02:53:40;;;;;;;10.90;6.03;;;5.50;99.90;;;;;;5046165;28;20048;-78
2021/03/05 02:56:19;;;;;;;13.38;6.35;;;5.50;99.90;;;;;;5043081;28;20086;-79
2021/03/05 02:58:48;;;;;;;12.77;6.28;;;5.50;99.90;;;;;;5043223;28;20661;-81
2021/03/05 03:01:15;;;;;;;12.27;6.22;;;5.50;99.90;;;;;;5036082;28;20480;-79
2021/03/05 03:03:42;;;;;;;11.40;6.97;;;5.50;99.90;;;;;;5042271;28;20024;-78
2021/03/05 03:06:10;;;;;;;12.57;7.32;;;5.50;99.90;;;;;;5036119;28;20037;-79
2021/03/05 03:08:36;;;;;;;11.38;6.57;;;5.50;99.90;;;;;;5042043;28;20092;-78
2021/03/05 03:11:04;;;;;;;9.80;5.20;;;5.50;99.90;;;;;;5046048;28;20047;-79
2021/03/05 03:13:39;;;;;;;12.07;7.50;;;5.50;99.90;;;;;;5039600;28;20037;-79
2021/03/05 03:16:07;;;;;;;12.73;6.40;;;5.60;99.90;;;;;;5033285;28;20029;-80
2021/03/05 03:18:36;;;;;;;11.05;6.85;;;5.50;99.90;;;;;;5044765;28;20108;-79
2021/03/05 03:21:04;;;;;;;13.73;7.77;;;5.60;99.90;;;;;;5043569;28;20025;-78
2021/03/05 03:23:29;;;;;;;12.23;6.45;;;5.60;99.90;;;;;;5035239;28;20068;-78
2021/03/05 03:25:58;;;;;;;14.48;7.00;;;5.60;99.90;;;;;;5043138;28;20032;-79
2021/03/05 03:28:24;;;;;;;14.60;7.60;;;5.60;99.90;;;;;;5047256;28;20131;-78
2021/03/05 03:30:49;;;;;;;12.55;4.70;;;5.60;99.90;;;;;;5040261;28;20046;-80
2021/03/05 03:33:17;;;;;;;14.65;6.78;;;5.60;99.90;;;;;;5039626;28;20057;-80
2021/03/05 03:35:43;;;;;;;12.32;6.93;;;5.60;99.90;;;;;;5047319;28;20069;-78
2021/03/05 03:38:11;;;;;;;11.27;6.03;;;5.60;99.90;;;;;;5047555;28;20511;-77
2021/03/05 03:40:38;;;;;;;12.35;6.60;;;5.60;99.90;;;;;;5040492;28;20536;-79
2021/03/05 03:43:05;;;;;;;13.57;6.85;;;5.60;99.90;;;;;;5041527;28;20056;-79
2021/03/05 03:45:32;;;;;;;13.10;7.32;;;5.60;99.90;;;;;;5047887;28;20040;-78
2021/03/05 03:48:00;;;;;;;14.00;7.40;;;5.60;99.90;;;;;;5040074;28;20384;-78
2021/03/05 03:50:38;;;;;;;16.77;8.52;;;5.60;99.90;;;;;;5048321;28;20021;-78
2021/03/05 03:53:15;;;;;;;14.77;7.53;;;5.60;99.90;;;;;;5043361;28;20040;-78
2021/03/05 03:55:41;;;;;;;12.38;6.97;;;5.60;99.90;;;;;;5042502;28;20696;-78
2021/03/05 03:58:08;;;;;;;12.35;6.47;;;5.50;99.90;;;;;;5059196;28;20067;-77
2021/03/05 04:00:36;;;;;;;13.45;7.68;;;5.60;99.90;;;;;;5046354;28;20032;-79
2021/03/05 04:03:05;;;;;;;12.00;6.85;;;5.50;99.90;;;;;;5056497;28;20189;-79
2021/03/05 04:05:36;;;;;;;12.90;7.15;;;5.60;99.90;;;;;;5038685;28;20045;-79
2021/03/05 04:08:02;;;;;;;11.90;5.15;;;5.50;99.90;;;;;;5038856;28;20045;-79
2021/03/05 04:10:29;;;;;;;11.55;6.93;;;5.50;99.90;;;;;;5046883;28;20024;-80
2021/03/05 04:12:56;;;;;;;12.27;5.72;;;5.50;99.90;;;;;;5038795;28;20041;-79
2021/03/05 04:15:23;;;;;;;12.27;6.93;;;5.50;99.90;;;;;;5043592;28;20029;-81
2021/03/05 04:17:48;;;;;;;13.10;6.43;;;5.50;99.90;;;;;;5040112;28;20041;-79
2021/03/05 04:20:16;;;;;;;13.63;6.47;;;5.50;99.90;;;;;;5039096;28;20033;-78
2021/03/05 04:22:46;;;;;;;10.52;5.95;;;5.50;99.90;;;;;;5048548;28;20342;-79
2021/03/05 04:25:12;;;;;;;;;;;5.50;99.90;;;;;;5036688;28;20067;-78
2021/03/05 04:27:38;;;;;;;10.57;6.00;;;5.40;99.90;;;;;;5037085;28;19913;-78
2021/03/05 04:30:05;;;;;;;9.60;5.60;;;5.40;99.90;;;;;;5036612;28;20539;-78
2021/03/05 04:32:30;;;;;;;11.48;6.30;;;5.40;99.90;;;;;;5042023;28;20045;-80
2021/03/05 04:34:56;;;;;;;9.85;5.90;;;5.40;99.90;;;;;;5043936;28;20025;-79
2021/03/05 04:37:21;;;;;;;7.60;3.75;;;5.40;99.90;;;;;;5042347;28;20083;-79
2021/03/05 04:39:47;;;;;;;9.40;4.88;;;5.40;99.90;;;;;;5043743;28;20025;-78
2021/03/05 04:42:13;;;;;;;9.07;4.70;;;5.40;99.90;;;;;;5049286;28;20082;-79
2021/03/05 04:44:38;;;;;;;12.63;6.25;;;5.30;99.90;;;;;;5044628;28;20120;-79
2021/03/05 04:47:04;;;;;;;10.60;5.95;;;5.30;99.90;;;;;;5040822;28;20037;-77
2021/03/05 04:49:29;;;;;;;12.95;6.93;;;5.20;99.90;;;;;;5049928;28;20043;-79
2021/03/05 04:51:55;;;;;;;10.95;6.28;;;5.20;99.90;;;;;;5049282;28;20069;-81
2021/03/05 04:54:22;;;;;;;13.98;7.55;;;5.10;99.90;;;;;;5045849;28;20122;-78
2021/03/05 04:56:47;;;;;;;15.55;8.15;;;5.10;99.90;;;;;;5043601;28;20033;-79
2021/03/05 04:59:14;;;;;;;14.20;8.30;;;5.10;99.90;;;;;;5043248;28;20041;-79
2021/03/05 05:01:40;;;;;;;15.23;7.95;;;5.00;99.90;;;;;;5041773;28;20103;-80
2021/03/05 05:04:05;;;;;;;7.07;4.18;;;5.00;99.90;;;;;;5035783;28;20725;-80
2021/03/05 05:06:31;;;;;;;7.57;4.10;;;4.80;99.90;;;;;;5046477;28;20037;-80
2021/03/05 05:08:57;;;;;;;7.15;4.28;;;4.80;99.90;;;;;;5043937;28;20114;-79
2021/03/05 05:11:22;;;;;;;11.65;5.40;;;4.80;99.90;;;;;;5044895;28;20025;-81
2021/03/05 05:13:48;;;;;;;11.63;6.22;;;4.80;99.90;;;;;;5041185;28;20047;-79
2021/03/05 05:16:14;;;;;;;14.80;7.93;;;4.80;99.90;;;;;;5044385;28;20107;-79
2021/03/05 05:18:39;;;;;;;14.57;7.63;;;4.80;99.90;;;;;;5048686;28;20480;-81
2021/03/05 05:21:05;;;;;;;17.98;9.60;;;4.70;99.90;;;;;;5052824;28;20033;-80
2021/03/05 05:23:30;;;;;;;20.70;11.00;;;4.70;99.90;;;;;;5036091;28;20056;-77
2021/03/05 05:25:56;;;;;;;22.48;11.48;;;4.80;99.90;;;;;;5045114;28;20025;-77
2021/03/05 05:28:22;;;;;;;26.00;12.95;;;4.80;99.90;;;;;;5045407;28;20060;-78
2021/03/05 05:30:47;;;;;;;29.20;14.63;;;4.80;99.90;;;;;;5039419;28;20095;-79
2021/03/05 05:33:13;;;;;;;27.35;12.68;;;4.80;99.90;;;;;;5036082;28;20037;-79
2021/03/05 05:35:38;;;;;;;35.67;16.17;;;4.90;99.90;;;;;;5037316;28;20025;-78
2021/03/05 05:38:04;;;;;;;37.28;16.50;;;4.80;99.90;;;;;;5041913;28;20112;-79
2021/03/05 05:40:30;;;;;;;31.55;15.02;;;4.80;99.90;;;;;;5039874;28;20689;-77
2021/03/05 05:42:56;;;;;;;33.83;16.70;;;4.90;99.90;;;;;;5043583;28;20029;-78
2021/03/05 05:45:22;;;;;;;36.58;17.23;;;4.90;99.90;;;;;;5044761;28;20094;-76
2021/03/05 05:47:48;;;;;;;34.25;17.73;;;4.90;99.90;;;;;;5033244;28;20373;-78
2021/03/05 05:50:13;;;;;;;32.47;15.13;;;4.90;99.90;;;;;;5046707;28;20029;-78
2021/03/05 05:52:41;;;;;;;33.85;15.75;;;4.90;99.90;;;;;;5035937;28;20068;-77
2021/03/05 05:55:08;;;;;;;36.95;16.52;;;4.90;99.90;;;;;;5040356;28;20101;-78
2021/03/05 05:57:37;;;;;;;33.63;15.43;;;5.00;99.90;;;;;;5047710;28;20041;-78
2021/03/05 06:00:08;;;;;;;34.20;16.30;;;4.90;99.90;;;;;;5043732;28;20033;-77
2021/03/05 06:02:35;;;;;;;30.83;15.30;;;5.00;99.90;;;;;;5038376;28;20037;-78
2021/03/05 06:05:02;;;;;;;32.15;15.43;;;4.90;99.90;;;;;;5043516;28;20045;-80
2021/03/05 06:07:28;;;;;;;35.47;16.20;;;5.00;99.90;;;;;;5042761;28;20109;-78
2021/03/05 06:09:53;;;;;;;28.23;13.75;;;4.90;99.90;;;;;;5043810;28;20113;-77
2021/03/05 06:12:19;;;;;;;29.73;14.73;;;4.90;99.90;;;;;;5038119;28;20467;-77
2021/03/05 06:14:46;;;;;;;27.02;11.15;;;4.80;99.90;;;;;;5044440;28;20029;-77
2021/03/05 06:17:12;;;;;;;23.80;11.55;;;4.80;99.90;;;;;;5039370;28;20052;-77
2021/03/05 06:19:39;;;;;;;28.10;13.00;;;4.80;99.90;;;;;;5030622;28;20442;-76
2021/03/05 06:22:21;;;;;;;25.80;12.18;;;4.80;99.90;;;;;;5043870;28;20037;-78
2021/03/05 06:24:47;;;;;;;22.95;10.82;;;4.80;99.90;;;;;;5038086;28;20032;-77
2021/03/05 06:27:15;;;;;;;25.00;11.35;;;4.80;99.90;;;;;;5045852;28;20116;-77
2021/03/05 06:29:45;;;;;;;21.17;11.00;;;4.70;99.90;;;;;;5045763;28;20049;-77
2021/03/05 06:32:13;;;;;;;23.02;11.93;;;4.70;99.90;;;;;;5036949;28;20428;-78
2021/03/05 06:34:53;;;;;;;18.65;8.90;;;4.60;99.90;;;;;;5039005;28;20025;-77
2021/03/05 06:37:22;;;;;;;;;;;4.60;99.90;;;;;;5037121;28;20029;-76
2021/03/05 06:40:06;;;;;;;22.02;10.27;;;4.60;99.90;;;;;;5046858;28;19909;-77
2021/03/05 06:42:50;;;;;;;19.58;10.45;;;4.60;99.90;;;;;;5037629;28;20048;-78
2021/03/05 06:45:18;;;;;;;20.08;10.38;;;4.60;99.90;;;;;;5036999;28;20034;-76
2021/03/05 06:48:04;;;;;;;20.73;9.13;;;4.60;99.90;;;;;;5045760;28;20112;-78
2021/03/05 06:50:34;;;;;;;22.08;10.63;;;4.60;99.90;;;;;;5042259;28;20562;-77
2021/03/05 06:53:00;;;;;;;19.92;9.98;;;4.60;99.90;;;;;;5035960;28;20037;-78
2021/03/05 06:55:26;;;;;;;18.70;9.75;;;4.50;99.90;;;;;;5039222;28;20057;-78
2021/03/05 06:57:55;;;;;;;20.38;10.50;;;4.50;99.90;;;;;;5042195;28;20029;-77
2021/03/05 07:00:23;;;;;;;15.20;7.47;;;4.50;99.90;;;;;;5041643;28;20033;-81
2021/03/05 07:02:50;;;;;;;19.02;10.55;;;4.40;99.90;;;;;;5034918;28;20025;-84
2021/03/05 07:05:17;;;;;;;17.60;9.18;;;4.40;99.90;;;;;;5049262;28;20028;-82
2021/03/05 07:07:44;;;;;;;16.58;9.93;;;4.30;99.90;;;;;;5036933;28;20018;-82
2021/03/05 07:10:14;;;;;;;16.93;9.07;;;4.30;99.90;;;;;;5046982;28;20484;-82
2021/03/05 07:13:00;;;;;;;18.52;10.10;;;4.20;99.90;;;;;;5048173;28;20131;-81
2021/03/05 07:15:25;;;;;;;19.90;10.77;;;4.10;99.90;;;;;;5038390;28;20029;-81
2021/03/05 07:17:51;;;;;;;20.77;11.27;;;4.00;99.90;;;;;;5041119;28;20829;-79
2021/03/05 07:20:17;;;;;;;16.67;9.68;;;4.00;99.90;;;;;;5044665;28;20063;-85
2021/03/05 07:22:47;;;;;;;17.67;9.03;;;4.00;99.90;;;;;;5044538;28;20041;-81
2021/03/05 07:25:16;;;;;;;20.07;10.83;;;4.00;99.90;;;;;;5036956;28;20029;-83
2021/03/05 07:27:45;;;;;;;20.70;10.90;;;4.10;99.90;;;;;;5049161;28;20032;-79
2021/03/05 07:30:15;;;;;;;23.02;11.43;;;4.00;99.90;;;;;;5048364;28;20052;-86
2021/03/05 07:32:49;;;;;;;23.70;12.00;;;4.00;99.90;;;;;;5058164;28;20048;-84
2021/03/05 07:35:23;;;;;;;22.80;12.10;;;4.00;99.90;;;;;;5051052;28;20033;-87
2021/03/05 07:38:00;;;;;;;25.43;12.70;;;4.00;99.90;;;;;;5036829;28;20048;-85
2021/03/05 07:40:27;;;;;;;23.33;12.15;;;4.00;99.90;;;;;;5039964;28;20029;-84
2021/03/05 07:42:55;;;;;;;22.83;11.05;;;4.00;99.90;;;;;;5041242;28;20051;-83
2021/03/05 07:45:21;;;;;;;22.63;12.33;;;3.90;99.90;;;;;;5040223;28;20025;-86
2021/03/05 07:47:48;;;;;;;26.37;12.70;;;3.90;99.90;;;;;;5043089;28;20480;-87
2021/03/05 07:50:16;;;;;;;16.30;7.97;;;3.90;99.90;;;;;;5056755;28;20029;-88
2021/03/05 07:52:42;;;;;;;18.73;9.07;;;3.70;99.90;;;;;;5043985;28;20053;-85
2021/03/05 07:55:08;;;;;;;13.87;7.63;;;3.60;99.90;;;;;;5036367;28;20382;-85
2021/03/05 07:57:43;;;;;;;13.10;6.60;;;3.50;99.90;;;;;;5040907;28;20037;-84
2021/03/05 08:00:10;;;;;;;10.43;5.88;;;3.30;99.90;;;;;;5045804;28;20022;-84
2021/03/05 08:02:56;;;;;;;12.67;6.50;;;3.30;99.90;;;;;;5037075;28;20044;-84
2021/03/05 08:05:31;;;;;;;10.63;4.63;;;3.20;99.90;;;;;;5065272;28;20087;-84
2021/03/05 08:08:29;;;;;;;11.43;5.60;;;3.10;99.90;;;;;;5038431;28;20044;-85
2021/03/05 08:11:05;;;;;;;12.10;6.17;;;3.00;99.90;;;;;;5005102;28;20056;-84
2021/03/05 08:13:47;;;;;;;10.20;5.60;;;3.00;99.90;;;;;;4988685;28;20068;-83
2021/03/05 08:16:38;;;;;;;11.83;6.30;;;3.10;99.90;;;;;;4999836;28;20049;-84
2021/03/05 08:19:03;;;;;;;11.13;5.47;;;3.10;99.90;;;;;;4992422;28;20037;-84
2021/03/05 08:21:55;;;;;;;10.17;5.77;;;3.10;99.90;;;;;;5006827;28;20544;-85
2021/03/05 08:24:28;;;;;;;10.03;4.57;;;3.20;99.90;;;;;;5004999;28;20602;-82
2021/03/05 08:27:05;;;;;;;5.97;3.30;;;3.10;99.90;;;;;;4989455;28;20547;-81
2021/03/05 08:29:55;;;;;;;8.53;4.23;;;2.90;99.90;;;;;;5002649;28;20132;-83
2021/03/05 08:32:33;;;;;;;7.50;4.53;;;2.90;99.90;;;;;;5004547;28;20057;-84
2021/03/05 08:34:59;;;;;;;11.47;5.90;;;2.70;99.90;;;;;;5008723;28;20034;-85
2021/03/05 08:37:36;;;;;;;11.90;6.57;;;2.70;99.90;;;;;;5032634;28;20045;-90
2021/03/05 08:40:10;;;;;;;13.53;7.40;;;2.60;99.90;;;;;;5028547;28;20046;-90
2021/03/05 08:42:52;;;;;;;9.83;5.07;;;2.50;99.90;;;;;;4993689;28;20034;-85
2021/03/05 08:45:30;;;;;;;15.27;7.23;;;2.40;99.90;;;;;;4990540;28;20121;-80
2021/03/05 08:48:00;;;;;;;14.40;6.73;;;2.20;99.90;;;;;;4990061;28;20121;-84
2021/03/05 08:50:31;;;;;;;13.60;7.20;;;2.20;99.90;;;;;;4999103;28;20049;-83
2021/03/05 08:53:05;;;;;;;14.93;7.97;;;2.10;99.90;;;;;;4999694;28;20121;-87
2021/03/05 08:55:36;;;;;;;11.97;5.97;;;2.20;99.90;;;;;;4999030;28;20047;-86
2021/03/05 08:58:03;;;;;;;14.57;7.90;;;2.00;99.90;;;;;;5038153;28;20022;-85
2021/03/05 09:00:31;;;;;;;17.07;8.87;;;2.10;99.90;;;;;;5042764;28;20037;-84
2021/03/05 09:03:10;;;;;;;19.87;10.33;;;2.10;99.90;;;;;;5043513;28;20021;-84
2021/03/05 09:05:40;;;;;;;17.77;8.87;;;2.20;99.90;;;;;;5037811;28;20032;-84
2021/03/05 09:08:07;;;;;;;19.10;8.83;;;2.20;99.90;;;;;;5041790;28;20788;-83
2021/03/05 09:10:44;;;;;;;17.97;7.93;;;2.20;99.90;;;;;;5043494;28;20033;-86
2021/03/05 09:13:14;;;;;;;22.00;11.40;;;2.20;99.90;;;;;;5058896;28;20112;-86
2021/03/05 09:15:50;;;;;;;;;;;2.20;99.90;;;;;;5039476;28;20452;-85
2021/03/05 09:18:21;;;;;;;13.20;5.53;;;2.10;99.90;;;;;;5039440;28;20308;-84
2021/03/05 09:21:01;;;;;;;18.10;10.13;;;2.10;99.90;;;;;;5039050;28;20129;-83
2021/03/05 09:23:40;;;;;;;16.97;9.30;;;2.10;99.90;;;;;;5036560;28;20092;-85
2021/03/05 09:26:08;;;;;;;19.60;10.33;;;2.30;99.90;;;;;;5040270;28;20036;-84
2021/03/05 09:28:49;;;;;;;19.70;10.27;;;2.30;99.90;;;;;;5038799;28;20041;-85
2021/03/05 09:31:17;;;;;;;19.37;10.07;;;2.30;99.90;;;;;;5038754;28;20396;-84
2021/03/05 09:33:45;;;;;;;16.57;8.30;;;2.40;99.90;;;;;;5039948;28;20541;-85
2021/03/05 09:36:16;;;;;;;21.07;10.87;;;2.20;99.90;;;;;;5040645;28;20032;-83
2021/03/05 09:38:53;;;;;;;14.93;6.93;;;2.30;99.90;;;;;;5041642;28;20033;-86
2021/03/05 09:41:21;;;;;;;20.87;10.97;;;2.10;99.90;;;;;;5049368;28;20048;-85
2021/03/05 09:44:02;;;;;;;21.87;10.40;;;2.10;99.90;;;;;;5055538;28;20067;-85
2021/03/05 09:46:30;;;;;;;22.43;9.60;;;2.00;99.90;;;;;;5044598;28;20045;-84
2021/03/05 09:48:57;;;;;;;16.17;7.70;;;1.90;99.90;;;;;;5044923;28;20021;-83
2021/03/05 09:51:24;;;;;;;19.83;9.73;;;1.90;99.90;;;;;;5041182;28;20457;-84
2021/03/05 09:53:52;;;;;;;18.50;8.83;;;1.80;99.90;;;;;;5040382;28;20037;-83
2021/03/05 09:56:20;;;;;;;18.73;9.43;;;1.70;99.90;;;;;;5044533;28;20028;-83
2021/03/05 09:58:59;;;;;;;21.77;9.90;;;1.70;99.90;;;;;;5039179;28;20029;-82
2021/03/05 10:01:38;;;;;;;20.77;9.48;;;1.60;99.90;;;;;;5043968;28;20032;-81
2021/03/05 10:04:04;;;;;;;13.90;4.68;;;1.60;99.90;;;;;;5032855;28;20025;-82
2021/03/05 10:06:32;;;;;;;17.13;6.60;;;1.60;99.90;;;;;;5037488;28;20447;-84
2021/03/05 10:09:00;;;;;;;15.47;7.20;;;1.50;99.90;;;;;;5037616;28;20021;-84
2021/03/05 10:11:32;;;;;;;10.87;4.80;;;1.50;99.90;;;;;;5060541;28;20041;-89
2021/03/05 10:13:58;;;;;;;11.80;5.03;;;1.50;99.90;;;;;;5035730;28;20038;-86
2021/03/05 10:16:27;;;;;;;16.77;7.13;;;1.70;99.90;;;;;;5037348;28;20452;-86
2021/03/05 10:19:05;;;;;;;16.52;6.35;;;1.70;99.90;;;;;;5040391;28;20211;-82
2021/03/05 10:21:32;;;;;;;22.40;9.00;;;1.70;99.90;;;;;;5040476;28;20375;-83
2021/03/05 10:24:04;;;;;;;21.07;9.23;;;1.80;99.90;;;;;;5040287;28;20037;-84
2021/03/05 10:26:29;;;;;;;22.83;10.43;;;1.90;99.90;;;;;;5043856;28;20191;-85
2021/03/05 10:28:57;;;;;;;25.60;10.53;;;2.10;99.90;;;;;;5051764;28;20095;-82
2021/03/05 10:31:48;;;;;;;26.57;11.70;;;2.30;99.90;;;;;;5049508;28;20380;-86
2021/03/05 10:34:32;;;;;;;24.07;11.20;;;2.30;99.90;;;;;;5041952;28;20032;-86
2021/03/05 10:37:03;;;;;;;29.23;12.77;;;2.20;99.90;;;;;;5056672;28;20124;-84
2021/03/05 10:39:34;;;;;;;26.57;13.27;;;2.30;99.90;;;;;;5046760;28;20033;-88
2021/03/05 10:42:21;;;;;;;21.67;10.30;;;2.30;99.90;;;;;;5054980;28;20023;-87
2021/03/05 10:44:48;;;;;;;28.73;11.93;;;2.20;99.90;;;;;;5073975;28;20017;-90
2021/03/05 10:47:15;;;;;;;28.10;12.17;;;2.10;99.90;;;;;;5068616;28;20021;-85
2021/03/05 10:49:42;;;;;;;29.93;12.67;;;2.30;99.90;;;;;;5058357;28;20029;-82
2021/03/05 10:52:11;;;;;;;28.43;12.67;;;2.40;99.90;;;;;;5060433;28;20061;-84
2021/03/05 10:54:37;;;;;;;27.97;13.30;;;2.40;99.90;;;;;;5047918;28;20076;-84
2021/03/05 10:57:03;;;;;;;27.90;11.23;;;2.50;99.90;;;;;;5055718;28;20108;-83
2021/03/05 10:59:30;;;;;;;32.90;13.93;;;2.40;99.90;;;;;;5056017;28;20570;-83
2021/03/05 11:01:56;;;;;;;29.40;12.70;;;2.40;99.90;;;;;;5053708;28;20060;-83
2021/03/05 11:04:23;;;;;;;28.80;11.17;;;2.40;99.90;;;;;;5054252;28;20040;-82
2021/03/05 11:06:49;;;;;;;32.43;13.13;;;2.30;99.90;;;;;;5054582;28;20078;-83
2021/03/05 11:09:19;;;;;;;26.93;12.60;;;2.30;99.90;;;;;;5050103;28;20021;-81
2021/03/05 11:11:47;;;;;;;28.30;12.23;;;2.30;99.90;;;;;;5049862;28;20053;-81
2021/03/05 11:14:14;;;;;;;23.13;10.27;;;2.10;99.90;;;;;;5057190;28;20170;-81
2021/03/05 11:16:40;;;;;;;28.97;12.57;;;2.10;99.90;;;;;;5046529;28;20025;-82
2021/03/05 11:19:06;;;;;;;21.43;8.77;;;2.20;99.90;;;;;;5043395;28;20033;-82
2021/03/05 11:21:32;;;;;;;26.13;10.50;;;2.10;99.90;;;;;;5051385;28;20430;-80
2021/03/05 11:23:58;;;;;;;16.27;7.93;;;2.20;99.90;;;;;;5053331;28;20032;-82
2021/03/05 11:26:25;;;;;;;24.37;8.33;;;2.00;99.90;;;;;;5046486;28;20041;-81
2021/03/05 11:28:52;;;;;;;28.83;13.00;;;2.10;99.90;;;;;;5032746;28;20104;-79
2021/03/05 11:31:18;;;;;;;26.03;10.07;;;2.20;99.90;;;;;;5035945;28;20078;-82
2021/03/05 11:33:44;;;;;;;23.97;10.83;;;2.30;99.90;;;;;;5033423;28;20085;-79
2021/03/05 11:36:14;;;;;;;22.83;10.10;;;2.30;99.90;;;;;;5046119;28;20140;-82
2021/03/05 11:38:43;;;;;;;;;;;2.40;99.90;;;;;;5041394;28;20757;-83
2021/03/05 11:41:10;;;;;;;25.90;11.02;;;2.50;99.90;;;;;;5037542;28;20423;-87
2021/03/05 11:43:40;;;;;;;24.73;9.73;;;2.50;99.90;;;;;;5034277;28;20514;-83
2021/03/05 11:46:07;;;;;;;20.23;8.57;;;2.50;99.90;;;;;;5054997;28;20032;-86
2021/03/05 11:48:32;;;;;;;19.90;8.00;;;2.50;99.90;;;;;;5040895;28;20392;-85
2021/03/05 11:50:58;;;;;;;23.20;10.23;;;2.60;99.90;;;;;;5036219;28;20104;-86
2021/03/05 11:53:24;;;;;;;20.03;9.63;;;2.70;99.90;;;;;;5047719;28;20098;-84
2021/03/05 11:55:49;;;;;;;19.30;9.50;;;2.80;99.90;;;;;;5060356;28;20039;-84
2021/03/05 11:58:15;;;;;;;19.27;8.73;;;2.60;99.90;;;;;;5047928;28;20456;-88
2021/03/05 12:00:41;;;;;;;20.97;10.73;;;2.50;99.90;;;;;;5043070;28;20395;-84
2021/03/05 12:03:06;;;;;;;19.10;9.37;;;2.80;99.90;;;;;;5043966;28;20419;-84
2021/03/05 12:05:35;;;;;;;25.30;10.97;;;3.00;99.90;;;;;;5051073;28;20074;-80
2021/03/05 12:08:00;;;;;;;22.20;10.03;;;3.30;99.90;;;;;;5033172;28;20037;-80
2021/03/05 12:10:26;;;;;;;18.40;8.50;;;3.50;99.90;;;;;;5033931;28;20036;-81
2021/03/05 12:12:52;;;;;;;15.03;7.57;;;3.30;99.90;;;;;;5032876;28;20034;-82
2021/03/05 12:15:18;;;;;;;13.57;6.57;;;3.30;99.90;;;;;;5035358;28;20025;-80
2021/03/05 12:17:45;;;;;;;15.67;7.57;;;3.00;99.90;;;;;;5047005;28;20377;-82
2021/03/05 12:20:11;;;;;;;17.90;8.23;;;3.10;99.90;;;;;;5046992;28;20021;-82
2021/03/05 12:22:37;;;;;;;18.17;8.90;;;3.30;99.90;;;;;;5054939;28;20035;-82
2021/03/05 12:25:06;;;;;;;13.23;6.87;;;3.40;99.90;;;;;;5055974;28;20051;-82
2021/03/05 12:27:32;;;;;;;14.37;7.53;;;3.40;99.90;;;;;;5053967;28;20027;-83
2021/03/05 12:29:58;;;;;;;17.97;7.07;;;3.00;99.90;;;;;;5052184;28;20041;-79
2021/03/05 12:32:23;;;;;;;16.43;8.10;;;3.20;99.90;;;;;;5052701;28;20033;-81
2021/03/05 12:34:49;;;;;;;14.73;7.93;;;3.00;99.90;;;;;;5048798;28;20041;-80
2021/03/05 12:37:22;;;;;;;18.33;8.47;;;3.30;99.90;;;;;;5053730;28;20044;-80
2021/03/05 12:39:48;;;;;;;14.67;6.33;;;3.40;99.90;;;;;;5054682;28;20021;-79
2021/03/05 12:42:14;;;;;;;9.98;5.63;;;3.30;99.90;;;;;;5052698;28;20028;-81
2021/03/05 12:44:39;;;;;;;10.00;4.77;;;3.30;99.90;;;;;;5052360;28;20120;-79
2021/03/05 12:47:05;;;;;;;10.47;4.67;;;3.30;99.90;;;;;;5034515;28;20462;-80
2021/03/05 12:49:31;;;;;;;12.70;6.10;;;3.20;99.90;;;;;;5035820;28;20094;-80
2021/03/05 12:51:56;;;;;;;9.00;3.97;;;3.40;99.90;;;;;;5032658;28;20034;-80
2021/03/05 12:54:22;;;;;;;11.23;4.97;;;3.30;99.90;;;;;;5042192;28;20112;-78
2021/03/05 12:56:48;;;;;;;12.23;6.07;;;3.30;99.90;;;;;;5037759;28;20064;-78